sensor_id;sensor_type;location;lat;lon;timestamp;temperature;humidity
44435;DHT22;30138;20.964;105.830;2023-06-14T00:03:15;30.50;80.50
44435;DHT22;30138;20.964;105.830;2023-06-14T00:08:26;30.50;80.60
44435;DHT22;30138;20.964;105.830;2023-06-14T00:13:35;30.50;80.80
44435;DHT22;30138;20.964;105.830;2023-06-14T00:18:41;30.50;80.90
44435;DHT22;30138;20.964;105.830;2023-06-14T00:23:50;30.50;81.00
44435;DHT22;30138;20.964;105.830;2023-06-14T00:28:58;30.50;81.20
44435;DHT22;30138;20.964;105.830;2023-06-14T00:34:04;30.50;81.20
44435;DHT22;30138;20.964;105.830;2023-06-14T00:39:14;30.50;81.30
44435;DHT22;30138;20.964;105.830;2023-06-14T00:44:21;30.50;81.40
44435;DHT22;30138;20.964;105.830;2023-06-14T00:49:28;30.50;81.50
44435;DHT22;30138;20.964;105.830;2023-06-14T00:54:37;30.50;81.70
44435;DHT22;30138;20.964;105.830;2023-06-14T00:59:46;30.50;81.80
44435;DHT22;30138;20.964;105.830;2023-06-14T01:04:53;30.60;82.10
44435;DHT22;30138;20.964;105.830;2023-06-14T01:10:14;30.50;82.20
44435;DHT22;30138;20.964;105.830;2023-06-14T01:15:25;30.50;82.60
44435;DHT22;30138;20.964;105.830;2023-06-14T01:20:33;30.40;83.00
44435;DHT22;30138;20.964;105.830;2023-06-14T01:25:43;30.40;83.20
44435;DHT22;30138;20.964;105.830;2023-06-14T01:30:52;30.50;83.30
44435;DHT22;30138;20.964;105.830;2023-06-14T01:35:59;30.50;83.10
44435;DHT22;30138;20.964;105.830;2023-06-14T01:41:09;30.50;83.10
44435;DHT22;30138;20.964;105.830;2023-06-14T01:46:17;30.60;83.20
44435;DHT22;30138;20.964;105.830;2023-06-14T01:51:23;30.50;83.90
44435;DHT22;30138;20.964;105.830;2023-06-14T01:56:32;30.60;83.30
44435;DHT22;30138;20.964;105.830;2023-06-14T02:01:39;30.60;83.40
44435;DHT22;30138;20.964;105.830;2023-06-14T02:06:47;30.60;83.40
44435;DHT22;30138;20.964;105.830;2023-06-14T02:11:57;30.60;83.80
44435;DHT22;30138;20.964;105.830;2023-06-14T02:17:06;30.60;84.10
44435;DHT22;30138;20.964;105.830;2023-06-14T02:22:13;30.50;84.50
44435;DHT22;30138;20.964;105.830;2023-06-14T02:27:23;30.50;84.80
44435;DHT22;30138;20.964;105.830;2023-06-14T02:32:30;30.50;85.00
44435;DHT22;30138;20.964;105.830;2023-06-14T02:37:37;30.40;85.20
44435;DHT22;30138;20.964;105.830;2023-06-14T02:42:47;30.40;85.50
44435;DHT22;30138;20.964;105.830;2023-06-14T02:48:01;30.40;85.70
44435;DHT22;30138;20.964;105.830;2023-06-14T02:59:30;30.40;86.10
44435;DHT22;30138;20.964;105.830;2023-06-14T03:05:15;30.50;85.90
44435;DHT22;30138;20.964;105.830;2023-06-14T03:10:25;30.50;85.80
44435;DHT22;30138;20.964;105.830;2023-06-14T03:15:35;30.60;85.80
44435;DHT22;30138;20.964;105.830;2023-06-14T03:20:45;30.60;85.80
44435;DHT22;30138;20.964;105.830;2023-06-14T03:25:52;30.60;85.70
44435;DHT22;30138;20.964;105.830;2023-06-14T03:31:02;30.60;85.70
44435;DHT22;30138;20.964;105.830;2023-06-14T03:36:10;30.60;85.80
44435;DHT22;30138;20.964;105.830;2023-06-14T03:41:17;30.60;86.50
44435;DHT22;30138;20.964;105.830;2023-06-14T03:46:28;30.50;87.30
44435;DHT22;30138;20.964;105.830;2023-06-14T03:51:37;30.40;87.70
44435;DHT22;30138;20.964;105.830;2023-06-14T03:56:45;30.40;88.00
44435;DHT22;30138;20.964;105.830;2023-06-14T04:01:55;30.40;88.30
44435;DHT22;30138;20.964;105.830;2023-06-14T04:07:03;30.40;88.60
44435;DHT22;30138;20.964;105.830;2023-06-14T04:12:13;30.40;88.80
44435;DHT22;30138;20.964;105.830;2023-06-14T04:17:22;30.40;89.10
44435;DHT22;30138;20.964;105.830;2023-06-14T04:22:31;30.40;89.20
44435;DHT22;30138;20.964;105.830;2023-06-14T04:27:41;30.50;89.10
44435;DHT22;30138;20.964;105.830;2023-06-14T04:32:50;30.50;89.30
44435;DHT22;30138;20.964;105.830;2023-06-14T04:37:59;30.40;90.80
44435;DHT22;30138;20.964;105.830;2023-06-14T04:43:09;30.50;91.40
44435;DHT22;30138;20.964;105.830;2023-06-14T04:48:24;30.50;91.80
44435;DHT22;30138;20.964;105.830;2023-06-14T04:53:31;30.50;92.10
44435;DHT22;30138;20.964;105.830;2023-06-14T04:58:40;30.50;92.80
44435;DHT22;30138;20.964;105.830;2023-06-14T05:03:49;30.50;94.10
44435;DHT22;30138;20.964;105.830;2023-06-14T05:08:58;30.50;94.70
44435;DHT22;30138;20.964;105.830;2023-06-14T05:14:05;30.50;94.90
44435;DHT22;30138;20.964;105.830;2023-06-14T05:19:14;30.60;94.90
44435;DHT22;30138;20.964;105.830;2023-06-14T05:24:21;30.60;95.80
44435;DHT22;30138;20.964;105.830;2023-06-14T05:29:28;30.60;96.30
44435;DHT22;30138;20.964;105.830;2023-06-14T05:34:37;30.70;96.50
44435;DHT22;30138;20.964;105.830;2023-06-14T05:39:43;30.70;97.40
44435;DHT22;30138;20.964;105.830;2023-06-14T05:44:51;30.70;97.50
44435;DHT22;30138;20.964;105.830;2023-06-14T05:50:00;30.70;97.60
44435;DHT22;30138;20.964;105.830;2023-06-14T05:55:07;30.80;97.80
44435;DHT22;30138;20.964;105.830;2023-06-14T06:00:15;30.70;98.10
44435;DHT22;30138;20.964;105.830;2023-06-14T06:05:26;30.70;98.00
44435;DHT22;30138;20.964;105.830;2023-06-14T06:10:32;30.70;98.10
44435;DHT22;30138;20.964;105.830;2023-06-14T06:15:42;30.80;99.20
44435;DHT22;30138;20.964;105.830;2023-06-14T06:20:52;30.80;99.90
44435;DHT22;30138;20.964;105.830;2023-06-14T06:25:59;30.90;99.80
44435;DHT22;30138;20.964;105.830;2023-06-14T06:31:06;30.90;99.90
44435;DHT22;30138;20.964;105.830;2023-06-14T06:36:15;30.90;99.90
44435;DHT22;30138;20.964;105.830;2023-06-14T06:41:23;31.00;99.90
44435;DHT22;30138;20.964;105.830;2023-06-14T06:46:30;31.00;99.90
44435;DHT22;30138;20.964;105.830;2023-06-14T06:51:42;31.00;99.90
44435;DHT22;30138;20.964;105.830;2023-06-14T06:56:48;31.00;99.90
44435;DHT22;30138;20.964;105.830;2023-06-14T07:01:55;31.00;99.90
44435;DHT22;30138;20.964;105.830;2023-06-14T07:07:05;31.00;99.90
44435;DHT22;30138;20.964;105.830;2023-06-14T07:12:13;31.00;99.90
44435;DHT22;30138;20.964;105.830;2023-06-14T07:17:20;31.00;99.90
44435;DHT22;30138;20.964;105.830;2023-06-14T07:22:29;31.10;99.90
44435;DHT22;30138;20.964;105.830;2023-06-14T07:27:36;31.00;99.90
44435;DHT22;30138;20.964;105.830;2023-06-14T07:32:44;31.10;99.80
44435;DHT22;30138;20.964;105.830;2023-06-14T07:37:53;31.10;99.90
44435;DHT22;30138;20.964;105.830;2023-06-14T07:43:00;31.10;99.90
44435;DHT22;30138;20.964;105.830;2023-06-14T07:48:07;31.10;99.80
44435;DHT22;30138;20.964;105.830;2023-06-14T07:53:15;31.10;99.90
44435;DHT22;30138;20.964;105.830;2023-06-14T07:58:22;31.10;99.90
44435;DHT22;30138;20.964;105.830;2023-06-14T08:03:29;31.10;99.80
44435;DHT22;30138;20.964;105.830;2023-06-14T08:08:38;31.10;99.90
44435;DHT22;30138;20.964;105.830;2023-06-14T08:13:45;31.10;99.70
44435;DHT22;30138;20.964;105.830;2023-06-14T08:18:51;31.10;99.80
44435;DHT22;30138;20.964;105.830;2023-06-14T08:24:00;31.10;99.90
44435;DHT22;30138;20.964;105.830;2023-06-14T08:29:07;31.10;99.90
44435;DHT22;30138;20.964;105.830;2023-06-14T08:34:13;31.10;99.90
44435;DHT22;30138;20.964;105.830;2023-06-14T08:39:22;31.10;99.80
44435;DHT22;30138;20.964;105.830;2023-06-14T08:44:29;31.20;99.90
44435;DHT22;30138;20.964;105.830;2023-06-14T08:49:37;31.20;99.90
44435;DHT22;30138;20.964;105.830;2023-06-14T08:54:47;31.20;99.90
44435;DHT22;30138;20.964;105.830;2023-06-14T08:59:57;31.20;99.90
44435;DHT22;30138;20.964;105.830;2023-06-14T09:05:08;31.20;99.80
44435;DHT22;30138;20.964;105.830;2023-06-14T09:10:18;31.20;99.80
44435;DHT22;30138;20.964;105.830;2023-06-14T09:15:25;31.20;99.80
44435;DHT22;30138;20.964;105.830;2023-06-14T09:20:32;31.30;99.80
44435;DHT22;30138;20.964;105.830;2023-06-14T09:25:47;31.30;99.70
44435;DHT22;30138;20.964;105.830;2023-06-14T09:30:55;31.30;99.80
44435;DHT22;30138;20.964;105.830;2023-06-14T09:36:02;31.30;99.70
44435;DHT22;30138;20.964;105.830;2023-06-14T09:41:11;31.30;99.70
44435;DHT22;30138;20.964;105.830;2023-06-14T09:46:18;31.30;99.60
44435;DHT22;30138;20.964;105.830;2023-06-14T09:51:25;31.30;99.50
44435;DHT22;30138;20.964;105.830;2023-06-14T09:56:36;31.30;99.60
44435;DHT22;30138;20.964;105.830;2023-06-14T10:01:45;31.30;99.50
44435;DHT22;30138;20.964;105.830;2023-06-14T10:06:54;31.30;99.40
44435;DHT22;30138;20.964;105.830;2023-06-14T10:12:03;31.30;99.40
44435;DHT22;30138;20.964;105.830;2023-06-14T10:17:12;31.30;99.60
44435;DHT22;30138;20.964;105.830;2023-06-14T10:22:32;31.30;99.60
44435;DHT22;30138;20.964;105.830;2023-06-14T10:27:45;31.30;99.80
44435;DHT22;30138;20.964;105.830;2023-06-14T10:33:05;31.30;99.70
44435;DHT22;30138;20.964;105.830;2023-06-14T10:38:16;31.30;99.90
44435;DHT22;30138;20.964;105.830;2023-06-14T10:43:39;31.30;99.80
44435;DHT22;30138;20.964;105.830;2023-06-14T10:48:46;31.30;99.80
44435;DHT22;30138;20.964;105.830;2023-06-14T10:53:53;31.30;99.80
44435;DHT22;30138;20.964;105.830;2023-06-14T10:59:07;31.30;99.70
44435;DHT22;30138;20.964;105.830;2023-06-14T11:04:15;31.20;99.70
44435;DHT22;30138;20.964;105.830;2023-06-14T11:15:18;31.20;99.80
44435;DHT22;30138;20.964;105.830;2023-06-14T11:20:30;31.20;99.50
44435;DHT22;30138;20.964;105.830;2023-06-14T11:25:38;31.20;99.40
44435;DHT22;30138;20.964;105.830;2023-06-14T11:30:46;31.20;99.40
44435;DHT22;30138;20.964;105.830;2023-06-14T11:35:53;31.20;99.40
44435;DHT22;30138;20.964;105.830;2023-06-14T11:41:03;31.30;99.30
44435;DHT22;30138;20.964;105.830;2023-06-14T11:46:15;31.20;99.30
44435;DHT22;30138;20.964;105.830;2023-06-14T11:51:26;31.20;99.30
44435;DHT22;30138;20.964;105.830;2023-06-14T11:56:33;31.20;99.20
44435;DHT22;30138;20.964;105.830;2023-06-14T12:01:45;31.20;99.30
44435;DHT22;30138;20.964;105.830;2023-06-14T12:06:54;31.20;99.40
44435;DHT22;30138;20.964;105.830;2023-06-14T12:12:04;31.20;99.50
44435;DHT22;30138;20.964;105.830;2023-06-14T12:17:13;31.20;99.40
44435;DHT22;30138;20.964;105.830;2023-06-14T12:22:23;31.20;99.50
44435;DHT22;30138;20.964;105.830;2023-06-14T12:27:30;31.20;99.40
44435;DHT22;30138;20.964;105.830;2023-06-14T12:32:39;31.20;99.50
44435;DHT22;30138;20.964;105.830;2023-06-14T12:37:47;31.20;99.40
44435;DHT22;30138;20.964;105.830;2023-06-14T12:42:53;31.20;99.50
44435;DHT22;30138;20.964;105.830;2023-06-14T12:48:02;31.20;99.40
44435;DHT22;30138;20.964;105.830;2023-06-14T12:53:09;31.20;99.50
44435;DHT22;30138;20.964;105.830;2023-06-14T12:58:18;31.20;99.50
44435;DHT22;30138;20.964;105.830;2023-06-14T13:03:28;31.00;90.40
44435;DHT22;30138;20.964;105.830;2023-06-14T13:08:36;30.80;74.70
44435;DHT22;30138;20.964;105.830;2023-06-14T13:13:43;30.50;74.80
44435;DHT22;30138;20.964;105.830;2023-06-14T13:18:52;30.30;68.00
44435;DHT22;30138;20.964;105.830;2023-06-14T13:23:59;30.00;71.60
44435;DHT22;30138;20.964;105.830;2023-06-14T13:29:07;29.90;64.20
44435;DHT22;30138;20.964;105.830;2023-06-14T13:34:16;29.70;67.50
44435;DHT22;30138;20.964;105.830;2023-06-14T13:39:24;29.60;63.30
44435;DHT22;30138;20.964;105.830;2023-06-14T13:44:31;29.50;64.50
44435;DHT22;30138;20.964;105.830;2023-06-14T13:49:39;29.40;63.40
44435;DHT22;30138;20.964;105.830;2023-06-14T13:54:46;29.30;63.80
44435;DHT22;30138;20.964;105.830;2023-06-14T13:59:53;29.20;63.40
44435;DHT22;30138;20.964;105.830;2023-06-14T14:05:07;29.10;62.40
44435;DHT22;30138;20.964;105.830;2023-06-14T14:10:16;29.00;62.90
44435;DHT22;30138;20.964;105.830;2023-06-14T14:15:23;28.90;61.40
44435;DHT22;30138;20.964;105.830;2023-06-14T14:20:32;28.80;62.60
44435;DHT22;30138;20.964;105.830;2023-06-14T14:25:40;28.80;60.00
44435;DHT22;30138;20.964;105.830;2023-06-14T14:30:47;28.70;62.10
44435;DHT22;30138;20.964;105.830;2023-06-14T14:35:59;28.60;59.20
44435;DHT22;30138;20.964;105.830;2023-06-14T14:41:07;28.60;61.80
44435;DHT22;30138;20.964;105.830;2023-06-14T14:46:14;28.50;58.40
44435;DHT22;30138;20.964;105.830;2023-06-14T14:51:25;28.50;61.90
44435;DHT22;30138;20.964;105.830;2023-06-14T14:56:32;28.40;57.80
44435;DHT22;30138;20.964;105.830;2023-06-14T15:01:41;28.40;61.80
44435;DHT22;30138;20.964;105.830;2023-06-14T15:06:50;28.30;57.10
44435;DHT22;30138;20.964;105.830;2023-06-14T15:11:58;28.30;61.30
44435;DHT22;30138;20.964;105.830;2023-06-14T15:17:05;28.20;59.00
44435;DHT22;30138;20.964;105.830;2023-06-14T15:22:15;28.20;69.20
44435;DHT22;30138;20.964;105.830;2023-06-14T15:27:22;28.20;62.40
44435;DHT22;30138;20.964;105.830;2023-06-14T15:32:28;28.20;65.60
44435;DHT22;30138;20.964;105.830;2023-06-14T15:37:39;28.10;59.20
44435;DHT22;30138;20.964;105.830;2023-06-14T15:42:47;28.10;63.70
44435;DHT22;30138;20.964;105.830;2023-06-14T15:47:54;28.00;57.70
44435;DHT22;30138;20.964;105.830;2023-06-14T15:53:03;28.00;62.00
44435;DHT22;30138;20.964;105.830;2023-06-14T15:58:10;27.90;57.20
44435;DHT22;30138;20.964;105.830;2023-06-14T16:03:18;27.90;60.90
44435;DHT22;30138;20.964;105.830;2023-06-14T16:08:27;27.80;56.90
44435;DHT22;30138;20.964;105.830;2023-06-14T16:13:35;27.80;60.10
44435;DHT22;30138;20.964;105.830;2023-06-14T16:19:00;27.70;56.80
44435;DHT22;30138;20.964;105.830;2023-06-14T16:24:10;27.80;59.50
44435;DHT22;30138;20.964;105.830;2023-06-14T16:29:17;27.70;57.10
44435;DHT22;30138;20.964;105.830;2023-06-14T16:34:45;27.70;58.50
44435;DHT22;30138;20.964;105.830;2023-06-14T16:40:19;27.60;57.30
44435;DHT22;30138;20.964;105.830;2023-06-14T16:45:26;27.60;57.20
44435;DHT22;30138;20.964;105.830;2023-06-14T16:50:33;27.60;57.80
44435;DHT22;30138;20.964;105.830;2023-06-14T16:55:44;27.60;56.70
44435;DHT22;30138;20.964;105.830;2023-06-14T17:00:53;27.50;58.20
44435;DHT22;30138;20.964;105.830;2023-06-14T17:06:00;27.50;56.10
44435;DHT22;30138;20.964;105.830;2023-06-14T17:11:13;27.50;58.50
44435;DHT22;30138;20.964;105.830;2023-06-14T17:16:21;27.40;55.70
44435;DHT22;30138;20.964;105.830;2023-06-14T17:21:29;27.40;64.40
44435;DHT22;30138;20.964;105.830;2023-06-14T17:26:38;27.40;65.00
44435;DHT22;30138;20.964;105.830;2023-06-14T17:31:45;27.50;72.70
44435;DHT22;30138;20.964;105.830;2023-06-14T17:36:54;27.50;69.10
44435;DHT22;30138;20.964;105.830;2023-06-14T17:42:03;27.50;71.60
44435;DHT22;30138;20.964;105.830;2023-06-14T17:47:11;27.50;63.00
44435;DHT22;30138;20.964;105.830;2023-06-14T17:52:19;27.50;66.40
44435;DHT22;30138;20.964;105.830;2023-06-14T17:57:29;27.50;59.30
44435;DHT22;30138;20.964;105.830;2023-06-14T18:02:37;27.50;63.40
44435;DHT22;30138;20.964;105.830;2023-06-14T18:07:45;27.40;57.50
44435;DHT22;30138;20.964;105.830;2023-06-14T18:12:54;27.50;61.50
44435;DHT22;30138;20.964;105.830;2023-06-14T18:18:03;27.40;56.60
44435;DHT22;30138;20.964;105.830;2023-06-14T18:23:11;27.40;60.30
44435;DHT22;30138;20.964;105.830;2023-06-14T18:28:22;27.30;57.20
44435;DHT22;30138;20.964;105.830;2023-06-14T18:33:30;27.40;59.40
44435;DHT22;30138;20.964;105.830;2023-06-14T18:38:38;27.60;61.10
44435;DHT22;30138;20.964;105.830;2023-06-14T18:43:49;27.70;62.60
44435;DHT22;30138;20.964;105.830;2023-06-14T18:48:57;27.90;63.80
44435;DHT22;30138;20.964;105.830;2023-06-14T18:54:05;28.00;64.60
44435;DHT22;30138;20.964;105.830;2023-06-14T18:59:16;28.10;65.50
44435;DHT22;30138;20.964;105.830;2023-06-14T19:04:23;28.20;66.20
44435;DHT22;30138;20.964;105.830;2023-06-14T19:09:31;28.30;67.00
44435;DHT22;30138;20.964;105.830;2023-06-14T19:14:41;28.30;67.70
44435;DHT22;30138;20.964;105.830;2023-06-14T19:19:49;28.40;68.30
44435;DHT22;30138;20.964;105.830;2023-06-14T19:24:57;28.50;68.90
44435;DHT22;30138;20.964;105.830;2023-06-14T19:30:08;28.50;69.40
44435;DHT22;30138;20.964;105.830;2023-06-14T19:35:17;28.60;70.00
44435;DHT22;30138;20.964;105.830;2023-06-14T19:40:24;28.60;70.40
44435;DHT22;30138;20.964;105.830;2023-06-14T19:45:34;28.70;71.00
44435;DHT22;30138;20.964;105.830;2023-06-14T19:50:41;28.70;71.50
44435;DHT22;30138;20.964;105.830;2023-06-14T19:55:48;28.70;71.90
44435;DHT22;30138;20.964;105.830;2023-06-14T20:00:58;28.70;72.30
44435;DHT22;30138;20.964;105.830;2023-06-14T20:06:06;28.70;72.60
44435;DHT22;30138;20.964;105.830;2023-06-14T20:11:14;28.70;73.00
44435;DHT22;30138;20.964;105.830;2023-06-14T20:16:23;28.80;73.40
44435;DHT22;30138;20.964;105.830;2023-06-14T20:21:31;28.80;73.70
44435;DHT22;30138;20.964;105.830;2023-06-14T20:26:38;28.80;73.50
44435;DHT22;30138;20.964;105.830;2023-06-14T20:31:48;28.80;74.40
44435;DHT22;30138;20.964;105.830;2023-06-14T20:36:56;28.80;74.70
44435;DHT22;30138;20.964;105.830;2023-06-14T20:42:05;28.90;75.10
44435;DHT22;30138;20.964;105.830;2023-06-14T20:47:16;28.90;75.40
44435;DHT22;30138;20.964;105.830;2023-06-14T20:52:25;28.90;75.80
44435;DHT22;30138;20.964;105.830;2023-06-14T20:57:32;29.00;76.10
44435;DHT22;30138;20.964;105.830;2023-06-14T21:02:42;29.00;76.40
44435;DHT22;30138;20.964;105.830;2023-06-14T21:07:50;29.00;76.70
44435;DHT22;30138;20.964;105.830;2023-06-14T21:12:57;29.00;77.00
44435;DHT22;30138;20.964;105.830;2023-06-14T21:18:08;29.00;77.30
44435;DHT22;30138;20.964;105.830;2023-06-14T21:23:16;29.00;77.50
44435;DHT22;30138;20.964;105.830;2023-06-14T21:28:23;29.00;77.60
44435;DHT22;30138;20.964;105.830;2023-06-14T21:33:32;29.00;77.90
44435;DHT22;30138;20.964;105.830;2023-06-14T21:38:40;29.10;78.10
44435;DHT22;30138;20.964;105.830;2023-06-14T21:43:48;29.10;78.30
44435;DHT22;30138;20.964;105.830;2023-06-14T21:48:58;29.20;78.50
44435;DHT22;30138;20.964;105.830;2023-06-14T21:54:07;29.20;78.70
44435;DHT22;30138;20.964;105.830;2023-06-14T21:59:14;29.20;79.10
44435;DHT22;30138;20.964;105.830;2023-06-14T22:04:24;29.20;79.10
44435;DHT22;30138;20.964;105.830;2023-06-14T22:09:32;29.20;79.30
44435;DHT22;30138;20.964;105.830;2023-06-14T22:14:40;29.20;79.60
44435;DHT22;30138;20.964;105.830;2023-06-14T22:19:51;29.20;80.00
44435;DHT22;30138;20.964;105.830;2023-06-14T22:24:59;29.20;80.20
44435;DHT22;30138;20.964;105.830;2023-06-14T22:30:07;29.20;80.20
44435;DHT22;30138;20.964;105.830;2023-06-14T22:35:17;29.30;80.40
44435;DHT22;30138;20.964;105.830;2023-06-14T22:40:25;29.30;80.80
44435;DHT22;30138;20.964;105.830;2023-06-14T22:45:32;29.30;80.80
44435;DHT22;30138;20.964;105.830;2023-06-14T22:50:42;29.30;81.00
44435;DHT22;30138;20.964;105.830;2023-06-14T22:55:49;29.30;81.30
44435;DHT22;30138;20.964;105.830;2023-06-14T23:00:58;29.30;81.50
44435;DHT22;30138;20.964;105.830;2023-06-14T23:06:08;29.30;82.00
44435;DHT22;30138;20.964;105.830;2023-06-14T23:11:16;29.20;82.30
44435;DHT22;30138;20.964;105.830;2023-06-14T23:16:23;29.20;82.60
44435;DHT22;30138;20.964;105.830;2023-06-14T23:21:33;29.20;82.80
44435;DHT22;30138;20.964;105.830;2023-06-14T23:26:41;29.30;83.00
44435;DHT22;30138;20.964;105.830;2023-06-14T23:31:49;29.30;83.20
44435;DHT22;30138;20.964;105.830;2023-06-14T23:36:59;29.30;83.30
44435;DHT22;30138;20.964;105.830;2023-06-14T23:42:07;29.30;83.50
44435;DHT22;30138;20.964;105.830;2023-06-14T23:47:15;29.30;83.60
44435;DHT22;30138;20.964;105.830;2023-06-14T23:52:24;29.30;83.90
44435;DHT22;30138;20.964;105.830;2023-06-14T23:57:34;29.30;84.20
